Time;durP1;ratioP1;P1;durP2;ratioP2;P2;SDS_P1;SDS_P2;PMS_P1;PMS_P2;Temp;Humidity;BMP_temperature;BMP_pressure;BME280_temperature;BME280_humidity;BME280_pressure;Samples;Min_cycle;Max_cycle;Signal;HPM_P1;HPM_P2
2022/01/19 00:03:21;;;;;;;1999.90;999.90;;;;;;;7.84;69.18;102833.28;15598413;28;20049;-65
2022/01/19 00:10:54;;;;;;;1999.90;999.90;;;;;;;7.60;69.93;102843.88;15560231;28;20406;-64
2022/01/19 00:18:29;;;;;;;1999.90;999.90;;;;;;;7.71;69.76;102828.13;15544256;28;20450;-64
2022/01/19 00:26:01;;;;;;;1999.90;999.90;;;;;;;7.66;70.00;102815.03;15558191;28;20129;-65
2022/01/19 00:33:36;;;;;;;1999.90;999.90;;;;;;;7.91;69.27;102810.81;15560155;28;20529;-66
2022/01/19 00:41:10;;;;;;;1999.90;999.90;;;;;;;7.84;69.34;102805.50;15542608;28;20329;-66
2022/01/19 00:48:44;;;;;;;1999.90;999.90;;;;;;;7.73;69.65;102799.00;15558284;28;20487;-65
2022/01/19 00:56:17;;;;;;;1999.90;999.90;;;;;;;7.69;69.95;102797.00;15557081;28;20042;-66
2022/01/19 01:03:51;;;;;;;1999.90;999.90;;;;;;;7.94;69.28;102788.06;15556879;28;20491;-65
2022/01/19 01:11:35;;;;;;;1999.90;999.90;;;;;;;7.76;69.29;102790.13;15556439;28;20116;-64
2022/01/19 01:19:11;;;;;;;1999.90;999.90;;;;;;;7.99;69.19;102794.50;15578507;28;20418;-65
2022/01/19 01:26:44;;;;;;;1999.90;999.90;;;;;;;8.02;68.74;102766.19;15598280;28;20042;-67
2022/01/19 01:34:18;;;;;;;1999.90;999.90;;;;;;;7.63;69.41;102737.78;15582741;28;20096;-65
2022/01/19 01:41:51;;;;;;;1999.90;999.90;;;;;;;7.44;70.53;102720.63;15555236;28;20080;-65
2022/01/19 01:49:45;;;;;;;1999.90;999.90;;;;;;;8.00;68.65;102696.06;15574866;28;20041;-64
2022/01/19 01:57:19;;;;;;;1999.90;999.90;;;;;;;7.17;70.56;102680.94;15615869;28;20055;-64
2022/01/19 02:04:55;;;;;;;1999.90;999.90;;;;;;;7.65;69.49;102679.97;15615802;28;20042;-64
2022/01/19 02:43:57;;;;;;;1999.90;999.90;;;;;;;7.64;68.98;102608.84;15565209;28;20045;-66
2022/01/19 02:51:31;;;;;;;1999.90;999.90;;;;;;;7.46;69.47;102609.25;15565372;28;20199;-66
2022/01/19 02:59:14;;;;;;;1999.90;999.90;;;;;;;7.50;69.09;102575.13;15564425;28;20046;-67
2022/01/19 03:14:39;;;;;;;1999.90;999.90;;;;;;;7.39;69.40;102559.47;15563831;28;20033;-66
2022/01/19 03:22:13;;;;;;;1999.90;999.90;;;;;;;7.86;67.91;102541.16;15571683;28;20056;-66
2022/01/19 03:29:46;;;;;;;1999.90;999.90;;;;;;;7.57;68.73;102526.81;15624233;28;20406;-66
2022/01/19 03:37:20;;;;;;;1999.90;999.90;;;;;;;7.73;68.21;102509.97;15607469;28;20053;-66
2022/01/19 03:44:53;;;;;;;1999.90;999.90;;;;;;;7.73;68.44;102515.53;15614487;28;20288;-66
2022/01/19 03:52:27;;;;;;;1999.90;999.90;;;;;;;7.76;68.50;102492.75;15609169;28;20533;-65
2022/01/19 04:00:00;;;;;;;1999.90;999.90;;;;;;;7.28;69.32;102493.03;15639729;28;20045;-64
2022/01/19 04:07:34;;;;;;;1999.90;999.90;;;;;;;7.68;68.21;102472.97;15622394;28;20080;-65
2022/01/19 04:15:08;;;;;;;1999.90;999.90;;;;;;;7.67;67.96;102462.97;15621752;28;20501;-66
2022/01/19 04:22:42;;;;;;;;;;;;;;;7.48;68.64;102462.59;15593641;28;20053;-65
2022/01/19 04:30:16;;;;;;;1999.90;999.90;;;;;;;7.67;68.05;102443.50;15543307;28;20070;-68
2022/01/19 04:38:28;;;;;;;1999.90;999.90;;;;;;;7.65;68.43;102423.50;15543047;28;20124;-66
2022/01/19 04:46:20;;;;;;;1999.90;999.90;;;;;;;7.45;68.51;102418.69;15558537;28;20046;-66
2022/01/19 05:02:04;;;;;;;1999.90;999.90;;;;;;;7.63;67.85;102381.28;15521349;28;20050;-65
2022/01/19 05:10:00;;;;;;;1999.90;999.90;;;;;;;7.66;67.88;102367.66;15599915;28;20403;-68
2022/01/19 05:17:33;;;;;;;1999.90;999.90;;;;;;;7.33;69.06;102380.03;15540289;28;20046;-66
2022/01/19 05:25:08;;;;;;;1999.90;999.90;;;;;;;7.46;68.27;102368.41;15545288;28;20051;-65
2022/01/19 05:33:03;;;;;;;1999.90;999.90;;;;;;;7.34;68.72;102358.66;15600697;28;20080;-66
2022/01/19 05:40:37;;;;;;;1999.90;999.90;;;;;;;7.46;68.31;102359.25;15633927;28;20072;-66
2022/01/19 05:48:11;;;;;;;1999.90;999.90;;;;;;;6.76;70.21;102350.28;15601561;28;20292;-66
2022/01/19 05:55:49;;;;;;;1999.90;999.90;;;;;;;7.13;69.65;102328.03;15616254;28;20083;-66
2022/01/19 06:03:22;;;;;;;1999.90;999.90;;;;;;;7.10;69.65;102308.31;15577368;28;20562;-65
2022/01/19 06:11:28;;;;;;;1999.90;999.90;;;;;;;7.00;70.19;102297.16;15554584;28;20402;-65
2022/01/19 06:19:01;;;;;;;1999.90;999.90;;;;;;;7.44;68.27;102311.47;15537978;28;20052;-66
2022/01/19 06:26:38;;;;;;;;;;;;;;;7.11;68.82;102296.09;15553675;28;20221;-66
2022/01/19 06:34:11;;;;;;;1999.90;999.90;;;;;;;7.07;69.04;102256.91;15553199;28;20008;-65
2022/01/19 06:42:08;;;;;;;1999.90;999.90;;;;;;;6.73;69.60;102228.75;15554107;28;20520;-66
2022/01/19 06:49:43;;;;;;;1999.90;999.90;;;;;;;6.51;69.91;102209.50;15552653;28;20103;-67
2022/01/19 06:57:19;;;;;;;1999.90;999.90;;;;;;;6.26;71.45;102185.28;15535787;28;20048;-66
2022/01/19 07:05:18;;;;;;;1999.90;999.90;;;;;;;6.50;69.83;102171.78;15570670;28;20077;-66
2022/01/19 07:13:02;;;;;;;1999.90;999.90;;;;;;;6.20;70.49;102163.31;15579074;28;20420;-65
2022/01/19 07:20:35;;;;;;;1999.90;999.90;;;;;;;5.93;71.78;102149.56;15561477;28;20045;-60
2022/01/19 07:28:11;;;;;;;1999.90;999.90;;;;;;;5.88;71.38;102138.44;15605228;28;20049;-62
2022/01/19 07:35:51;;;;;;;1999.90;999.90;;;;;;;5.65;71.30;102112.78;15569066;28;20041;-67
2022/01/19 07:43:26;;;;;;;1999.90;999.90;;;;;;;5.54;71.79;102099.97;15563441;28;20052;-65
2022/01/19 07:51:17;;;;;;;1999.90;999.90;;;;;;;5.27;73.01;102097.25;15576264;28;20054;-64
2022/01/19 07:58:58;;;;;;;1999.90;999.90;;;;;;;5.30;73.39;102082.06;15551339;28;20133;-62
2022/01/19 08:06:39;;;;;;;1999.90;999.90;;;;;;;5.40;72.78;102076.59;15557620;28;20030;-60
2022/01/19 08:14:14;;;;;;;1999.90;999.90;;;;;;;5.64;71.95;102077.91;15553376;28;20042;-63
2022/01/19 08:21:47;;;;;;;1999.90;999.90;;;;;;;5.71;71.73;102064.63;15552707;28;20072;-67
2022/01/19 08:29:21;;;;;;;1999.90;999.90;;;;;;;5.60;71.54;102053.75;15541598;28;20136;-67
2022/01/19 08:36:54;;;;;;;1999.90;999.90;;;;;;;5.70;71.40;102035.25;15534225;28;20096;-68
2022/01/19 08:44:41;;;;;;;1999.90;999.90;;;;;;;5.76;71.30;102033.38;15547013;28;20038;-66
2022/01/19 08:52:24;;;;;;;1999.90;999.90;;;;;;;6.50;69.05;102021.22;15573557;28;20094;-66
2022/01/19 09:00:15;;;;;;;1999.90;999.90;;;;;;;6.89;67.47;102005.72;15539395;28;20053;-65
2022/01/19 09:07:48;;;;;;;1999.90;999.90;;;;;;;7.45;65.31;102005.66;15593567;28;20037;-66
2022/01/19 09:15:23;;;;;;;1999.90;999.90;;;;;;;8.19;62.82;102005.97;15561252;28;20526;-66
2022/01/19 09:22:55;;;;;;;1999.90;999.90;;;;;;;8.33;62.28;101999.47;15600043;28;20080;-65
2022/01/19 09:30:29;;;;;;;1999.90;999.90;;;;;;;10.05;58.49;102001.81;15616460;28;20042;-67
2022/01/19 09:38:02;;;;;;;1999.90;999.90;;;;;;;9.49;58.08;101987.72;15616809;28;20064;-68
2022/01/19 09:45:36;;;;;;;1999.90;999.90;;;;;;;8.26;62.34;101978.69;15618965;28;20080;-66
2022/01/19 09:53:09;;;;;;;1999.90;999.90;;;;;;;7.73;64.87;101979.22;15619336;28;20107;-65
2022/01/19 10:00:46;;;;;;;1999.90;999.90;;;;;;;7.09;66.80;101954.09;15617195;28;20048;-65
2022/01/19 10:08:27;;;;;;;1999.90;999.90;;;;;;;7.00;67.29;101953.00;15614261;28;20552;-65
2022/01/19 10:23:52;;;;;;;1999.90;999.90;;;;;;;6.78;67.69;101937.47;15513356;28;20111;-65
2022/01/19 10:31:26;;;;;;;1999.90;999.90;;;;;;;6.38;68.95;101923.59;15555889;28;20050;-65
2022/01/19 10:38:59;;;;;;;1999.90;999.90;;;;;;;5.94;69.10;101912.94;15557001;28;20046;-65
2022/01/19 10:46:34;;;;;;;1999.90;999.90;;;;;;;6.14;69.70;101898.31;15555419;28;20074;-65
2022/01/19 10:54:13;;;;;;;1999.90;999.90;;;;;;;6.17;69.74;101897.78;15554128;28;20046;-66
2022/01/19 11:01:52;;;;;;;1999.90;999.90;;;;;;;6.06;67.70;101888.63;15558962;28;20451;-64
2022/01/19 11:09:27;;;;;;;1999.90;999.90;;;;;;;5.77;69.81;101860.53;15576141;28;20119;-65
2022/01/19 11:17:03;;;;;;;1999.90;999.90;;;;;;;5.57;69.80;101819.75;15626337;28;20053;-65
2022/01/19 11:24:44;;;;;;;1999.90;999.90;;;;;;;5.80;69.92;101791.56;15626124;28;20558;-65
2022/01/19 11:32:20;;;;;;;1999.90;999.90;;;;;;;5.77;70.23;101781.03;15625114;28;20124;-65
2022/01/19 11:40:00;;;;;;;1999.90;999.90;;;;;;;5.78;69.70;101768.84;15624752;28;20128;-65
2022/01/19 11:47:35;;;;;;;1999.90;999.90;;;;;;;5.78;70.30;101768.84;15624044;28;20050;-65
2022/01/19 11:55:13;;;;;;;1999.90;999.90;;;;;;;5.57;70.45;101744.16;15623051;28;20052;-64
2022/01/19 12:02:55;;;;;;;1999.90;999.90;;;;;;;5.39;70.75;101732.50;15623918;28;20395;-65
2022/01/19 12:10:47;;;;;;;1999.90;999.90;;;;;;;5.25;71.50;101689.88;15594758;28;20044;-64
2022/01/19 12:18:50;;;;;;;1999.90;999.90;;;;;;;5.43;71.09;101641.47;15599200;28;20495;-66
2022/01/19 12:26:23;;;;;;;1999.90;999.90;;;;;;;5.26;71.20;101627.88;15623114;28;20041;-67
2022/01/19 12:34:20;;;;;;;1999.90;999.90;;;;;;;5.64;70.43;101626.50;15621970;28;20048;-65
2022/01/19 12:41:56;;;;;;;1999.90;999.90;;;;;;;5.70;69.00;101578.28;15605052;28;20048;-64
2022/01/19 12:49:33;;;;;;;1999.90;999.90;;;;;;;5.57;69.39;101548.41;15620615;28;20049;-66
2022/01/19 12:57:06;;;;;;;1999.90;999.90;;;;;;;5.03;70.73;101548.16;15621420;28;20475;-65
2022/01/19 13:04:45;;;;;;;1999.90;999.90;;;;;;;5.77;69.66;101545.59;15604190;28;20091;-66
2022/01/19 13:12:18;;;;;;;1999.90;999.90;;;;;;;5.87;69.29;101539.22;15622013;28;20174;-65
2022/01/19 13:19:52;;;;;;;1999.90;999.90;;;;;;;5.81;68.91;101520.94;15625898;28;20118;-66
2022/01/19 13:27:26;;;;;;;1999.90;999.90;;;;;;;5.90;69.38;101516.50;15624257;28;20396;-64
2022/01/19 13:35:03;;;;;;;1999.90;999.90;;;;;;;5.93;68.59;101482.69;15599832;28;20064;-66
2022/01/19 13:42:41;;;;;;;1999.90;999.90;;;;;;;5.99;68.91;101466.88;15561385;28;20100;-65
2022/01/19 13:50:15;;;;;;;1999.90;999.90;;;;;;;6.03;69.21;101459.66;15555709;28;20104;-64
2022/01/19 13:57:48;;;;;;;1999.90;999.90;;;;;;;6.01;68.60;101437.78;15557829;28;20125;-66
2022/01/19 14:05:35;;;;;;;1999.90;999.90;;;;;;;6.10;69.24;101426.94;15559048;28;20068;-63
2022/01/19 14:13:29;;;;;;;1999.90;999.90;;;;;;;6.49;68.44;101410.31;15579424;28;20091;-65
2022/01/19 14:21:07;;;;;;;1999.90;999.90;;;;;;;6.51;67.94;101416.41;15616327;28;20057;-64
2022/01/19 14:28:40;;;;;;;1999.90;999.90;;;;;;;6.18;68.63;101398.63;15556244;28;20487;-65
2022/01/19 14:36:23;;;;;;;1999.90;999.90;;;;;;;6.32;69.07;101385.75;15566921;28;20468;-64
2022/01/19 14:44:01;;;;;;;1999.90;999.90;;;;;;;6.40;68.53;101370.47;15599072;28;20461;-65
2022/01/19 14:51:39;;;;;;;1999.90;999.90;;;;;;;6.50;68.63;101355.69;15629410;28;20050;-65
2022/01/19 14:59:13;;;;;;;1999.90;999.90;;;;;;;6.34;69.05;101336.41;15611804;28;20057;-65
2022/01/19 15:06:48;;;;;;;1999.90;999.90;;;;;;;6.60;69.23;101334.25;15628191;28;20116;-65
2022/01/19 15:14:21;;;;;;;1999.90;999.90;;;;;;;6.81;67.86;101332.09;15608333;28;20050;-65
2022/01/19 15:21:55;;;;;;;1999.90;999.90;;;;;;;6.28;69.84;101317.34;15579675;28;20046;-65
2022/01/19 15:29:28;;;;;;;1999.90;999.90;;;;;;;6.29;69.57;101297.66;15565650;28;20119;-64
2022/01/19 15:37:02;;;;;;;1999.90;999.90;;;;;;;6.87;68.13;101277.38;15564061;28;20050;-64
2022/01/19 15:44:38;;;;;;;1999.90;999.90;;;;;;;6.56;67.48;101274.09;15562636;28;20053;-66
2022/01/19 15:52:12;;;;;;;1999.90;999.90;;;;;;;6.54;67.50;101254.16;15564721;28;20129;-65
2022/01/19 15:59:45;;;;;;;1999.90;999.90;;;;;;;6.28;67.38;101239.75;15581016;28;20085;-65
2022/01/19 16:07:20;;;;;;;1999.90;999.90;;;;;;;6.32;67.52;101238.03;15561565;28;20621;-66
2022/01/19 16:14:52;;;;;;;1999.90;999.90;;;;;;;6.22;68.21;101232.59;15614348;28;20045;-66
2022/01/19 16:30:20;;;;;;;1999.90;999.90;;;;;;;6.13;68.15;101209.38;15582366;28;20136;-66
2022/01/19 16:37:54;;;;;;;1999.90;999.90;;;;;;;6.23;67.65;101201.81;15575903;28;20084;-66
2022/01/19 16:45:29;;;;;;;1999.90;999.90;;;;;;;6.02;68.80;101180.94;15558676;28;20065;-66
2022/01/19 16:53:03;;;;;;;1999.90;999.90;;;;;;;6.31;67.56;101176.22;15559917;28;20070;-66
2022/01/19 17:00:36;;;;;;;1999.90;999.90;;;;;;;6.29;67.85;101174.88;15569085;28;20048;-64
2022/01/19 17:08:10;;;;;;;1999.90;999.90;;;;;;;6.35;67.35;101157.88;15604315;28;20041;-66
2022/01/19 17:15:44;;;;;;;1999.90;999.90;;;;;;;6.41;66.99;101132.88;15620460;28;20410;-67
2022/01/19 17:23:18;;;;;;;1999.90;999.90;;;;;;;6.16;68.23;101137.59;15621063;28;20050;-65
2022/01/19 17:30:51;;;;;;;1999.90;999.90;;;;;;;6.19;67.66;101131.47;15569316;28;20138;-66
2022/01/19 17:38:25;;;;;;;1999.90;999.90;;;;;;;6.33;67.57;101104.69;15547966;28;20050;-66
2022/01/19 17:46:02;;;;;;;1999.90;999.90;;;;;;;6.04;67.13;101101.13;15535483;28;20053;-66
2022/01/19 17:53:44;;;;;;;1999.90;999.90;;;;;;;6.32;66.48;101085.59;15539201;28;20057;-66
2022/01/19 18:01:17;;;;;;;1999.90;999.90;;;;;;;6.43;66.13;101064.94;15559920;28;20545;-67
2022/01/19 18:08:52;;;;;;;1999.90;999.90;;;;;;;6.41;66.37;101064.41;15557131;28;20042;-66
2022/01/19 18:16:25;;;;;;;1999.90;999.90;;;;;;;6.28;66.42;101056.81;15556490;28;20860;-67
2022/01/19 18:23:59;;;;;;;1999.90;999.90;;;;;;;6.21;66.18;101048.84;15556651;28;20058;-65
2022/01/19 18:31:31;;;;;;;;;;;;;;;6.64;65.14;101043.31;15554248;28;20599;-65
2022/01/19 18:39:05;;;;;;;1999.90;999.90;;;;;;;6.49;65.29;101026.88;15569624;28;19922;-66
2022/01/19 18:46:39;;;;;;;1999.90;999.90;;;;;;;6.32;65.04;101005.22;15574753;28;20046;-66
2022/01/19 18:54:15;;;;;;;1999.90;999.90;;;;;;;6.28;65.02;100993.91;15614987;28;20200;-65
2022/01/19 19:01:48;;;;;;;1999.90;999.90;;;;;;;6.27;64.54;100977.56;15615920;28;20495;-66
2022/01/19 19:09:23;;;;;;;1999.90;999.90;;;;;;;6.46;64.31;100969.25;15608519;28;20112;-65
2022/01/19 19:16:56;;;;;;;1999.90;999.90;;;;;;;6.30;65.29;100949.25;15579791;28;20130;-65
2022/01/19 19:24:30;;;;;;;1999.90;999.90;;;;;;;6.16;65.90;100942.81;15601461;28;20049;-66
2022/01/19 19:32:04;;;;;;;1999.90;999.90;;;;;;;6.00;66.84;100920.84;15582931;28;20050;-66
2022/01/19 19:39:38;;;;;;;;;;;;;;;6.57;65.10;100916.16;15567253;28;20540;-65
2022/01/19 19:47:13;;;;;;;1999.90;999.90;;;;;;;5.91;67.33;100914.31;15547467;28;19921;-67
2022/01/19 19:54:50;;;;;;;1999.90;999.90;;;;;;;6.08;68.01;100900.78;15575566;28;20042;-63
2022/01/19 20:02:23;;;;;;;1999.90;999.90;;;;;;;6.07;66.95;100895.56;15602478;28;20132;-64
2022/01/19 20:09:57;;;;;;;1999.90;999.90;;;;;;;5.91;69.65;100863.63;15594216;28;20037;-65
2022/01/19 20:17:30;;;;;;;1999.90;999.90;;;;;;;5.93;69.06;100866.91;15584893;28;20410;-64
2022/01/19 20:25:05;;;;;;;1999.90;999.90;;;;;;;5.97;69.80;100851.38;15553819;28;20388;-62
2022/01/19 20:32:38;;;;;;;1999.90;999.90;;;;;;;5.85;69.45;100826.03;15559384;28;20075;-66
2022/01/19 20:40:13;;;;;;;1999.90;999.90;;;;;;;6.35;68.30;100821.66;15555376;28;20531;-66
2022/01/19 20:47:45;;;;;;;1999.90;999.90;;;;;;;6.11;68.87;100832.88;15550459;28;20049;-61
2022/01/19 20:55:19;;;;;;;1999.90;999.90;;;;;;;5.65;71.16;100818.84;15556455;28;20041;-65
2022/01/19 21:02:52;;;;;;;1999.90;999.90;;;;;;;5.80;70.64;100819.44;15525362;28;20062;-61
2022/01/19 21:10:26;;;;;;;1999.90;999.90;;;;;;;5.73;71.45;100819.00;15498559;28;20507;-64
2022/01/19 21:18:00;;;;;;;1999.90;999.90;;;;;;;5.82;70.99;100799.75;15500017;28;20046;-61
2022/01/19 21:25:34;;;;;;;1999.90;999.90;;;;;;;6.20;70.13;100797.81;15498305;28;20464;-66
2022/01/19 21:33:52;;;;;;;1999.90;999.90;;;;;;;6.47;69.94;100779.66;15495667;28;20120;-65
2022/01/19 21:41:26;;;;;;;1999.90;999.90;;;;;;;6.31;69.79;100773.53;15542404;28;20046;-66
2022/01/19 21:48:59;;;;;;;1999.90;999.90;;;;;;;6.01;70.99;100759.06;15603366;22;20229;-76
2022/01/19 21:56:33;;;;;;;1999.90;999.90;;;;;;;6.22;71.61;100761.50;15540109;28;20129;-74
2022/01/19 22:04:06;;;;;;;1999.90;999.90;;;;;;;6.21;72.21;100744.03;15633407;22;20094;-83
2022/01/19 22:11:40;;;;;;;1999.90;999.90;;;;;;;6.19;73.15;100745.47;15678443;28;20148;-80
2022/01/19 22:19:14;;;;;;;1999.90;999.90;;;;;;;6.32;73.02;100741.91;15678987;28;20051;-80
2022/01/19 22:26:50;;;;;;;1999.90;999.90;;;;;;;6.24;74.61;100743.41;15678283;28;20076;-79
2022/01/19 22:34:24;;;;;;;1999.90;999.90;;;;;;;6.06;75.99;100747.06;15680746;28;20068;-82
2022/01/19 22:41:58;;;;;;;1999.90;999.90;;;;;;;6.30;76.56;100746.94;15694147;28;20045;-82
2022/01/19 22:49:31;;;;;;;1999.90;999.90;;;;;;;6.14;77.44;100734.47;15662794;28;20109;-82
2022/01/19 22:57:06;;;;;;;1999.90;999.90;;;;;;;6.07;78.16;100740.41;15660070;28;20497;-81
2022/01/19 23:04:39;;;;;;;1999.90;999.90;;;;;;;6.18;78.49;100739.13;15655830;28;20116;-81
2022/01/19 23:12:13;;;;;;;1999.90;999.90;;;;;;;6.15;79.24;100713.94;15705378;28;20037;-81
2022/01/19 23:19:46;;;;;;;1999.90;999.90;;;;;;;6.06;80.43;100714.66;15709930;28;20106;-84
2022/01/19 23:27:25;;;;;;;1999.90;999.90;;;;;;;6.29;79.74;100723.13;15651665;28;20052;-82
2022/01/19 23:34:58;;;;;;;1999.90;999.90;;;;;;;6.06;80.14;100720.19;15650354;28;20057;-79
2022/01/19 23:50:23;;;;;;;1999.90;999.90;;;;;;;6.56;78.86;100753.66;15619766;28;20038;-82
2022/01/19 23:58:01;;;;;;;1999.90;999.90;;;;;;;6.60;76.87;100745.56;15634019;28;20055;-82
